createdAt,value
2019-01-12T00:01:23.829Z,48.20
2019-01-12T00:03:51.346Z,49.23
2019-01-12T00:06:18.885Z,53.23
2019-01-12T00:08:46.411Z,42.87
2019-01-12T00:11:13.893Z,44.73
2019-01-12T00:13:41.386Z,46.17
2019-01-12T00:16:08.930Z,38.63
2019-01-12T00:18:36.411Z,40.47
2019-01-12T00:21:03.889Z,35.80
2019-01-12T00:23:31.463Z,36.40
2019-01-12T00:25:59.041Z,40.87
2019-01-12T00:28:26.512Z,37.27
2019-01-12T00:30:54.029Z,44.07
2019-01-12T00:33:21.518Z,35.17
2019-01-12T00:35:48.997Z,41.03
2019-01-12T00:38:16.513Z,39.07
2019-01-12T00:40:44.003Z,39.03
2019-01-12T00:43:11.493Z,36.07
2019-01-12T00:45:39.009Z,33.80
2019-01-12T00:48:06.493Z,38.53
2019-01-12T00:50:33.989Z,36.37
2019-01-12T00:53:01.545Z,36.40
2019-01-12T00:55:29.036Z,46.17
2019-01-12T00:57:56.521Z,45.63
2019-01-12T01:00:24.076Z,46.00
2019-01-12T01:02:51.573Z,48.27
2019-01-12T01:05:19.048Z,51.43
2019-01-12T01:07:46.580Z,49.17
2019-01-12T01:10:16.763Z,40.23
2019-01-12T01:12:44.241Z,40.07
2019-01-12T01:15:11.897Z,36.33
2019-01-12T01:17:39.388Z,47.33
2019-01-12T01:20:07.801Z,37.63
2019-01-12T01:22:35.325Z,33.90
2019-01-12T01:25:03.501Z,34.57
2019-01-12T01:27:31.033Z,38.33
2019-01-12T01:29:58.562Z,36.77
2019-01-12T01:32:26.041Z,34.27
2019-01-12T01:34:53.544Z,36.03
2019-01-12T01:37:21.027Z,30.83
2019-01-12T01:39:48.521Z,35.77
2019-01-12T01:42:16.043Z,31.53
2019-01-12T01:44:43.583Z,33.40
2019-01-12T01:47:11.069Z,32.33
2019-01-12T01:49:38.582Z,31.27
2019-01-12T01:52:06.064Z,37.53
2019-01-12T01:54:33.536Z,32.13
2019-01-12T01:57:01.061Z,24.87
2019-01-12T01:59:28.547Z,27.27
2019-01-12T02:01:56.164Z,26.03
2019-01-12T02:04:23.665Z,26.63
2019-01-12T02:06:51.151Z,30.87
2019-01-12T02:09:18.641Z,23.40
2019-01-12T02:11:46.121Z,26.87
2019-01-12T02:14:13.647Z,16.83
2019-01-12T02:16:41.139Z,21.97
2019-01-12T02:19:08.614Z,25.97
2019-01-12T02:21:36.133Z,24.07
2019-01-12T02:24:03.792Z,23.50
2019-01-12T02:26:31.278Z,27.63
2019-01-12T02:28:58.769Z,28.30
